Edgewood, South Carolina
Current Conditions -  °F | °C
As of 10:53 AM on Thursday 30 Oct 2014 (Local Time) from KCUB Reporting Station
Clear Clear  
Wind Chill: 65°   Ceiling: Unl
Heat Index: 65°   Visibility: 10mi
Dew Point: 41°   Wind: 6mph
Humidity: 42%   Direction: NA
Pressure: 30.06"   Gusts: NA
Location:  34.0268°N, 81.0007°W
Report Text: KCUB 301453Z AUTO VRB05KT 10SM CLR 18/05 A3006 RMK AO2 SLP176 T01830050 51008
Loading
Personal Weather Stations






























Interactive Weather Map
Tropical Storm Tracking
New forecast layout! Learn more

10-Day Weather Forecast

Advertisements
Track Severe Weather on mobile